Koulitsa — 5BTN3 — position and weather

sailwx.info

Track history (hours):
 
Tides and Currents Weather Stations Pressure Air Temp Water Temp Dewpoint Dewpoint Depression Visibility Wind Speed Wind Dir Waves Ship Positions

Koulitsa

Last reported at 2017-Nov-26 09:48 UTC. Time now 2017-Dec-14 04:20 UTC.
Position N 36°49' W 075°46'.
Warning: this ship's position is 17 days out of date.

Length 225 m; draft 14.3 m.

Type: Cargo ship. MMSI: 209817000.

Date/timePositionNaut miles runAvg speedWind from/ knotsBaromVisibWave heightAir tempDewpointWater temp
2017-Nov-26 09:48N 36°49' W 075°46'3 9.7
2017-Nov-26 09:28N 36°51' W 075°49'4 8.9
2017-Nov-26 08:59N 36°53' W 075°53'4 8.7
2017-Nov-26 08:30N 36°56' W 075°57'4 8.0
2017-Nov-26 08:00N 36°57' W 076°02'5 9.5
2017-Nov-26 07:30N 36°59' W 076°08'6 9.0
2017-Nov-26 06:48N 37°00' W 076°15'4 8.9
2017-Nov-26 06:24N 36°59' W 076°19'4 7.9
2017-Nov-26 05:56N 36°57' W 076°23'2 3.0
2017-Nov-26 05:22N 36°58' W 076°25'0 0.0
2017-Nov-26 04:47N 36°58' W 076°25'0 0.0
2017-Nov-26 04:26N 36°58' W 076°25'0 0.0
2017-Nov-26 03:56N 36°58' W 076°25'0 0.0
2017-Nov-26 03:19N 36°58' W 076°25'0 0.0
2017-Nov-26 02:26N 36°58' W 076°25'0 0.0
2017-Nov-26 01:55N 36°58' W 076°25'0 0.0
2017-Nov-26 01:02N 36°58' W 076°25'0 0.0
2017-Nov-26 00:43N 36°58' W 076°25'0 0.0
2017-Nov-25 23:55N 36°58' W 076°25'0 0.0
2017-Nov-25 22:16N 36°58' W 076°25'0 0.0
2017-Nov-25 21:35N 36°58' W 076°25'0 0.0
2017-Nov-25 20:14N 36°58' W 076°25'0 0.0
2017-Nov-25 19:59N 36°58' W 076°25'0 0.0
2017-Nov-25 13:28N 36°58' W 076°25'0 0.0
2017-Nov-25 12:59N 36°58' W 076°25'0 0.0
2017-Nov-25 12:26N 36°58' W 076°25'0 0.0
2017-Nov-25 11:59N 36°58' W 076°25'0 0.0
2017-Nov-25 11:25N 36°58' W 076°25'0 0.0
2017-Nov-25 10:58N 36°58' W 076°25'0 0.0
2017-Nov-25 10:26N 36°58' W 076°25'0 0.0
2017-Nov-25 09:55N 36°58' W 076°25'0 0.0
2017-Nov-25 09:13N 36°58' W 076°25'0 0.0
2017-Nov-25 08:53N 36°58' W 076°25'0 0.0
2017-Nov-25 08:22N 36°58' W 076°25'0 0.0
2017-Nov-25 07:55N 36°58' W 076°25'0 0.0
2017-Nov-25 07:26N 36°58' W 076°25'0 0.0
2017-Nov-25 06:59N 36°58' W 076°25'0 0.0
2017-Nov-25 06:25N 36°58' W 076°25'0 0.0
2017-Nov-25 05:31N 36°58' W 076°25'0 0.0
2017-Nov-25 05:26N 36°58' W 076°25'0 0.0
2017-Nov-25 04:55N 36°58' W 076°25'0 0.0
2017-Nov-25 04:13N 36°58' W 076°25'0 0.0
2017-Nov-25 03:49N 36°58' W 076°25'0 0.0
2017-Nov-25 03:26N 36°58' W 076°25'0 0.0
2017-Nov-25 02:14N 36°58' W 076°25'0 0.0
2017-Nov-25 01:58N 36°58' W 076°25'0 0.0
2017-Nov-25 00:56N 36°58' W 076°25'0 0.0
2017-Nov-25 00:20N 36°58' W 076°25'0 0.0
2017-Nov-24 23:58N 36°58' W 076°25'0 0.0
2017-Nov-24 23:28N 36°58' W 076°25'0 0.0
2017-Nov-24 22:58N 36°58' W 076°25'0 0.0
2017-Nov-24 22:28N 36°58' W 076°25'0 0.0
2017-Nov-24 21:58N 36°58' W 076°25'0 0.0
2017-Nov-24 21:29N 36°58' W 076°25'0 0.0
2017-Nov-24 20:59N 36°58' W 076°25'0 0.0
2017-Nov-24 20:25N 36°58' W 076°25'0 0.0
2017-Nov-24 19:44N 36°58' W 076°25'0 0.0
2017-Nov-24 19:25N 36°58' W 076°25'0 0.0
2017-Nov-24 18:53N 36°58' W 076°25'0 0.0
2017-Nov-24 18:26N 36°58' W 076°25'0 0.0
2017-Nov-24 17:53N 36°58' W 076°25'0 0.0
2017-Nov-24 17:05N 36°58' W 076°25'0 0.0
2017-Nov-24 16:49N 36°58' W 076°25'0 0.0
2017-Nov-24 15:47N 36°58' W 076°25'0 0.0
2017-Nov-24 15:26N 36°58' W 076°25'0 0.0
2017-Nov-24 14:55N 36°58' W 076°25'0 0.0
2017-Nov-24 14:14N 36°58' W 076°25'0 0.0
2017-Nov-24 13:58N 36°58' W 076°25'0 0.0
2017-Nov-24 13:19N 36°58' W 076°25'0 0.0
2017-Nov-24 12:55N 36°58' W 076°25'0 0.0
2017-Nov-24 12:29N 36°58' W 076°25'0 0.0
2017-Nov-24 11:59N 36°58' W 076°25'0 0.0
2017-Nov-24 11:28N 36°58' W 076°25'0 0.0
2017-Nov-24 10:59N 36°58' W 076°25'0 0.0
2017-Nov-24 10:25N 36°58' W 076°25'0 0.0
2017-Nov-24 09:59N 36°58' W 076°25'0 0.0
2017-Nov-24 09:28N 36°58' W 076°25'0 0.0
2017-Nov-24 08:56N 36°58' W 076°25'0 0.0
2017-Nov-24 08:28N 36°58' W 076°25'0 0.0
2017-Nov-24 07:59N 36°58' W 076°25'0 0.0
2017-Nov-24 07:23N 36°58' W 076°25'0 0.0
2017-Nov-24 06:56N 36°58' W 076°25'0 0.0
2017-Nov-24 06:26N 36°58' W 076°25'0 0.0
2017-Nov-24 05:52N 36°58' W 076°25'0 0.0
2017-Nov-24 05:29N 36°58' W 076°25'0 0.0
2017-Nov-24 04:58N 36°58' W 076°25'0 0.0
2017-Nov-24 04:29N 36°58' W 076°25'0 0.0
2017-Nov-24 03:58N 36°58' W 076°25'0 0.0
2017-Nov-24 03:29N 36°58' W 076°25'0 0.0
2017-Nov-24 02:58N 36°58' W 076°25'0 0.0
2017-Nov-24 02:29N 36°58' W 076°25'0 0.0
2017-Nov-24 01:55N 36°58' W 076°25'0 0.0
2017-Nov-24 01:29N 36°58' W 076°25'0 0.0
2017-Nov-24 00:58N 36°58' W 076°25'0 0.0
2017-Nov-24 00:29N 36°58' W 076°25'0 0.0
2017-Nov-23 23:52N 36°58' W 076°25'0 0.0
2017-Nov-23 23:25N 36°58' W 076°25'0 0.0
2017-Nov-23 22:56N 36°58' W 076°25'0 0.0
2017-Nov-23 22:29N 36°58' W 076°25'0 0.0
2017-Nov-23 21:53N 36°58' W 076°25'0 0.0
2017-Nov-23 21:22N 36°58' W 076°25'0 0.0
2017-Nov-23 20:55N 36°58' W 076°25'0 0.0
2017-Nov-23 20:29N 36°58' W 076°25'0 0.0
2017-Nov-23 19:59N 36°58' W 076°25'0 0.0
2017-Nov-23 18:41N 36°58' W 076°25'0 0.0
2017-Nov-23 18:29N 36°58' W 076°25'0 0.0
2017-Nov-23 17:55N 36°58' W 076°25'0 0.0
2017-Nov-23 17:22N 36°58' W 076°25'0 0.0
2017-Nov-23 16:55N 36°58' W 076°25'0 0.0
2017-Nov-23 16:01N 36°58' W 076°25'0 0.0
2017-Nov-23 15:49N 36°58' W 076°25'0 0.0
2017-Nov-23 15:29N 36°58' W 076°25'0 0.0
2017-Nov-23 14:56N 36°58' W 076°25'0 0.0
2017-Nov-23 14:23N 36°58' W 076°25'0 0.0
2017-Nov-23 13:55N 36°58' W 076°25'0 0.0
2017-Nov-23 13:28N 36°58' W 076°25'0 0.0
2017-Nov-23 12:43N 36°58' W 076°25'0 0.0
2017-Nov-23 12:28N 36°58' W 076°25'0 0.0
2017-Nov-23 11:58N 36°58' W 076°25'0 0.0
2017-Nov-23 11:29N 36°58' W 076°25'0 0.0
2017-Nov-23 10:52N 36°58' W 076°25'0 0.0
2017-Nov-23 10:29N 36°58' W 076°25'0 0.0
2017-Nov-23 08:53N 36°58' W 076°25'0 0.0
2017-Nov-23 08:11N 36°58' W 076°25'0 0.0
2017-Nov-23 07:58N 36°58' W 076°25'0 0.0
2017-Nov-23 07:14N 36°58' W 076°25'0 0.0
2017-Nov-23 06:55N 36°58' W 076°25'0 0.0
2017-Nov-23 06:26N 36°58' W 076°25'0 0.0
2017-Nov-23 05:52N 36°58' W 076°25'0 0.0
2017-Nov-23 05:22N 36°58' W 076°25'0 0.0
2017-Nov-23 04:52N 36°58' W 076°25'0 0.0
2017-Nov-23 04:05N 36°58' W 076°25'0 0.0
2017-Nov-23 03:02N 36°58' W 076°25'0 0.0
2017-Nov-23 02:50N 36°58' W 076°25'0 0.0
2017-Nov-23 02:22N 36°58' W 076°25'0 0.0
2017-Nov-23 01:52N 36°58' W 076°25'0 0.0
2017-Nov-23 01:28N 36°58' W 076°25'0 0.0
2017-Nov-23 00:56N 36°58' W 076°25'0 0.0
2017-Nov-23 00:26N 36°58' W 076°25'0 0.0
2017-Nov-22 23:59N 36°58' W 076°25'2 3.3
2017-Nov-22 23:17N 36°57' W 076°23'411.1
2017-Nov-22 22:53N 36°60' W 076°18'411.0
2017-Nov-22 22:30N 37°00' W 076°13'611.2
2017-Nov-22 22:00N 36°58' W 076°06'510.7
2017-Nov-22 21:30N 36°57' W 075°60'4 8.6
2017-Nov-22 21:00N 36°55' W 075°55'5 9.2
2017-Nov-22 20:30N 36°52' W 075°51'5 8.7
2017-Nov-22 19:58N 36°50' W 075°46'  
Track history (hours):
 
Tides and Currents Weather Stations Pressure Air Temp Water Temp Dewpoint Dewpoint Depression Visibility Wind Speed Wind Dir Waves Ship Positions

Koulitsa

Last reported at 2017-Nov-26 09:48 UTC. Time now 2017-Dec-14 04:20 UTC.
Position N 36°49' W 075°46'.
Warning: this ship's position is 17 days out of date.

Length 225 m; draft 14.3 m.

Type: Cargo ship. MMSI: 209817000.

Date/timePositionNaut miles runAvg speedWind from/ knotsBaromVisibWave heightAir tempDewpointWater temp
2017-Nov-26 09:48N 36°49' W 075°46'3 9.7
2017-Nov-26 09:28N 36°51' W 075°49'4 8.9
2017-Nov-26 08:59N 36°53' W 075°53'4 8.7
2017-Nov-26 08:30N 36°56' W 075°57'4 8.0
2017-Nov-26 08:00N 36°57' W 076°02'5 9.5
2017-Nov-26 07:30N 36°59' W 076°08'6 9.0
2017-Nov-26 06:48N 37°00' W 076°15'4 8.9
2017-Nov-26 06:24N 36°59' W 076°19'4 7.9
2017-Nov-26 05:56N 36°57' W 076°23'2 3.0
2017-Nov-26 05:22N 36°58' W 076°25'0 0.0
2017-Nov-26 04:47N 36°58' W 076°25'0 0.0
2017-Nov-26 04:26N 36°58' W 076°25'0 0.0
2017-Nov-26 03:56N 36°58' W 076°25'0 0.0
2017-Nov-26 03:19N 36°58' W 076°25'0 0.0
2017-Nov-26 02:26N 36°58' W 076°25'0 0.0
2017-Nov-26 01:55N 36°58' W 076°25'0 0.0
2017-Nov-26 01:02N 36°58' W 076°25'0 0.0
2017-Nov-26 00:43N 36°58' W 076°25'0 0.0
2017-Nov-25 23:55N 36°58' W 076°25'0 0.0
2017-Nov-25 22:16N 36°58' W 076°25'0 0.0
2017-Nov-25 21:35N 36°58' W 076°25'0 0.0
2017-Nov-25 20:14N 36°58' W 076°25'0 0.0
2017-Nov-25 19:59N 36°58' W 076°25'0 0.0
2017-Nov-25 13:28N 36°58' W 076°25'0 0.0
2017-Nov-25 12:59N 36°58' W 076°25'0 0.0
2017-Nov-25 12:26N 36°58' W 076°25'0 0.0
2017-Nov-25 11:59N 36°58' W 076°25'0 0.0
2017-Nov-25 11:25N 36°58' W 076°25'0 0.0
2017-Nov-25 10:58N 36°58' W 076°25'0 0.0
2017-Nov-25 10:26N 36°58' W 076°25'0 0.0
2017-Nov-25 09:55N 36°58' W 076°25'0 0.0
2017-Nov-25 09:13N 36°58' W 076°25'0 0.0
2017-Nov-25 08:53N 36°58' W 076°25'0 0.0
2017-Nov-25 08:22N 36°58' W 076°25'0 0.0
2017-Nov-25 07:55N 36°58' W 076°25'0 0.0
2017-Nov-25 07:26N 36°58' W 076°25'0 0.0
2017-Nov-25 06:59N 36°58' W 076°25'0 0.0
2017-Nov-25 06:25N 36°58' W 076°25'0 0.0
2017-Nov-25 05:31N 36°58' W 076°25'0 0.0
2017-Nov-25 05:26N 36°58' W 076°25'0 0.0
2017-Nov-25 04:55N 36°58' W 076°25'0 0.0
2017-Nov-25 04:13N 36°58' W 076°25'0 0.0
2017-Nov-25 03:49N 36°58' W 076°25'0 0.0
2017-Nov-25 03:26N 36°58' W 076°25'0 0.0
2017-Nov-25 02:14N 36°58' W 076°25'0 0.0
2017-Nov-25 01:58N 36°58' W 076°25'0 0.0
2017-Nov-25 00:56N 36°58' W 076°25'0 0.0
2017-Nov-25 00:20N 36°58' W 076°25'0 0.0
2017-Nov-24 23:58N 36°58' W 076°25'0 0.0
2017-Nov-24 23:28N 36°58' W 076°25'0 0.0
2017-Nov-24 22:58N 36°58' W 076°25'0 0.0
2017-Nov-24 22:28N 36°58' W 076°25'0 0.0
2017-Nov-24 21:58N 36°58' W 076°25'0 0.0
2017-Nov-24 21:29N 36°58' W 076°25'0 0.0
2017-Nov-24 20:59N 36°58' W 076°25'0 0.0
2017-Nov-24 20:25N 36°58' W 076°25'0 0.0
2017-Nov-24 19:44N 36°58' W 076°25'0 0.0
2017-Nov-24 19:25N 36°58' W 076°25'0 0.0
2017-Nov-24 18:53N 36°58' W 076°25'0 0.0
2017-Nov-24 18:26N 36°58' W 076°25'0 0.0
2017-Nov-24 17:53N 36°58' W 076°25'0 0.0
2017-Nov-24 17:05N 36°58' W 076°25'0 0.0
2017-Nov-24 16:49N 36°58' W 076°25'0 0.0
2017-Nov-24 15:47N 36°58' W 076°25'0 0.0
2017-Nov-24 15:26N 36°58' W 076°25'0 0.0
2017-Nov-24 14:55N 36°58' W 076°25'0 0.0
2017-Nov-24 14:14N 36°58' W 076°25'0 0.0
2017-Nov-24 13:58N 36°58' W 076°25'0 0.0
2017-Nov-24 13:19N 36°58' W 076°25'0 0.0
2017-Nov-24 12:55N 36°58' W 076°25'0 0.0
2017-Nov-24 12:29N 36°58' W 076°25'0 0.0
2017-Nov-24 11:59N 36°58' W 076°25'0 0.0
2017-Nov-24 11:28N 36°58' W 076°25'0 0.0
2017-Nov-24 10:59N 36°58' W 076°25'0 0.0
2017-Nov-24 10:25N 36°58' W 076°25'0 0.0
2017-Nov-24 09:59N 36°58' W 076°25'0 0.0
2017-Nov-24 09:28N 36°58' W 076°25'0 0.0
2017-Nov-24 08:56N 36°58' W 076°25'0 0.0
2017-Nov-24 08:28N 36°58' W 076°25'0 0.0
2017-Nov-24 07:59N 36°58' W 076°25'0 0.0
2017-Nov-24 07:23N 36°58' W 076°25'0 0.0
2017-Nov-24 06:56N 36°58' W 076°25'0 0.0
2017-Nov-24 06:26N 36°58' W 076°25'0 0.0
2017-Nov-24 05:52N 36°58' W 076°25'0 0.0
2017-Nov-24 05:29N 36°58' W 076°25'0 0.0
2017-Nov-24 04:58N 36°58' W 076°25'0 0.0
2017-Nov-24 04:29N 36°58' W 076°25'0 0.0
2017-Nov-24 03:58N 36°58' W 076°25'0 0.0
2017-Nov-24 03:29N 36°58' W 076°25'0 0.0
2017-Nov-24 02:58N 36°58' W 076°25'0 0.0
2017-Nov-24 02:29N 36°58' W 076°25'0 0.0
2017-Nov-24 01:55N 36°58' W 076°25'0 0.0
2017-Nov-24 01:29N 36°58' W 076°25'0 0.0
2017-Nov-24 00:58N 36°58' W 076°25'0 0.0
2017-Nov-24 00:29N 36°58' W 076°25'0 0.0
2017-Nov-23 23:52N 36°58' W 076°25'0 0.0
2017-Nov-23 23:25N 36°58' W 076°25'0 0.0
2017-Nov-23 22:56N 36°58' W 076°25'0 0.0
2017-Nov-23 22:29N 36°58' W 076°25'0 0.0
2017-Nov-23 21:53N 36°58' W 076°25'0 0.0
2017-Nov-23 21:22N 36°58' W 076°25'0 0.0
2017-Nov-23 20:55N 36°58' W 076°25'0 0.0
2017-Nov-23 20:29N 36°58' W 076°25'0 0.0
2017-Nov-23 19:59N 36°58' W 076°25'0 0.0
2017-Nov-23 18:41N 36°58' W 076°25'0 0.0
2017-Nov-23 18:29N 36°58' W 076°25'0 0.0
2017-Nov-23 17:55N 36°58' W 076°25'0 0.0
2017-Nov-23 17:22N 36°58' W 076°25'0 0.0
2017-Nov-23 16:55N 36°58' W 076°25'0 0.0
2017-Nov-23 16:01N 36°58' W 076°25'0 0.0
2017-Nov-23 15:49N 36°58' W 076°25'0 0.0
2017-Nov-23 15:29N 36°58' W 076°25'0 0.0
2017-Nov-23 14:56N 36°58' W 076°25'0 0.0
2017-Nov-23 14:23N 36°58' W 076°25'0 0.0
2017-Nov-23 13:55N 36°58' W 076°25'0 0.0
2017-Nov-23 13:28N 36°58' W 076°25'0 0.0
2017-Nov-23 12:43N 36°58' W 076°25'0 0.0
2017-Nov-23 12:28N 36°58' W 076°25'0 0.0
2017-Nov-23 11:58N 36°58' W 076°25'0 0.0
2017-Nov-23 11:29N 36°58' W 076°25'0 0.0
2017-Nov-23 10:52N 36°58' W 076°25'0 0.0
2017-Nov-23 10:29N 36°58' W 076°25'0 0.0
2017-Nov-23 08:53N 36°58' W 076°25'0 0.0
2017-Nov-23 08:11N 36°58' W 076°25'0 0.0
2017-Nov-23 07:58N 36°58' W 076°25'0 0.0
2017-Nov-23 07:14N 36°58' W 076°25'0 0.0
2017-Nov-23 06:55N 36°58' W 076°25'0 0.0
2017-Nov-23 06:26N 36°58' W 076°25'0 0.0
2017-Nov-23 05:52N 36°58' W 076°25'0 0.0
2017-Nov-23 05:22N 36°58' W 076°25'0 0.0
2017-Nov-23 04:52N 36°58' W 076°25'0 0.0
2017-Nov-23 04:05N 36°58' W 076°25'0 0.0
2017-Nov-23 03:02N 36°58' W 076°25'0 0.0
2017-Nov-23 02:50N 36°58' W 076°25'0 0.0
2017-Nov-23 02:22N 36°58' W 076°25'0 0.0
2017-Nov-23 01:52N 36°58' W 076°25'0 0.0
2017-Nov-23 01:28N 36°58' W 076°25'0 0.0
2017-Nov-23 00:56N 36°58' W 076°25'0 0.0
2017-Nov-23 00:26N 36°58' W 076°25'0 0.0
2017-Nov-22 23:59N 36°58' W 076°25'2 3.3
2017-Nov-22 23:17N 36°57' W 076°23'411.1
2017-Nov-22 22:53N 36°60' W 076°18'411.0
2017-Nov-22 22:30N 37°00' W 076°13'611.2
2017-Nov-22 22:00N 36°58' W 076°06'510.7
2017-Nov-22 21:30N 36°57' W 075°60'4 8.6
2017-Nov-22 21:00N 36°55' W 075°55'5 9.2
2017-Nov-22 20:30N 36°52' W 075°51'5 8.7
2017-Nov-22 19:58N 36°50' W 075°46'  

Dump ship's entire track history